Abbotsford Airport
CYXX : now visible

Aeroporto :











RITROVATECI SU...

 
LOGIN :

Iscrizione | Disclaimer

   EN    FR    IT 

 









Sommario :    VFR   VFR Marginale   IFR   IFR Intensivo   IFR Molto Intensivo
Visibilità : 
Base nubi : 
>= 8 km
>= 3000ft
5 / 8 km
1000 / 3000 ft
1500m / 5 km
500 / 1000 ft
800 / 1500m
200 / 500 ft
< 800m
< 200 ft
Simboli :   Temporali  Nebbia  Neve Forte  Precipitazioni Forti  Vento > 20 kt






- Altitudine del aeroporto : 195 ft
- Codice IATA : YXX


CYXX - Abbotsford

ULTIMO METAR :
  • 072200Z VRB02KT 12SM FEW001 SCT006 OVC029 08/07 A2974 RMK SF1SF2SC5 VIS LWR N FG BANK DIST N AND E SLP073

METARs OBSOLETI :
  • 072130Z 04004KT 12SM FEW002 FEW010 BKN028 OVC035 08/07 A2974 RMK SF1SF1SC6SC1 SF TR VIS LWR E FG BANK DIST N-SE SLP073
  • 072100Z 02003KT 10SM -RA FEW002 FEW007 SCT015 SCT020 OVC027 08/07 A2974 RMK SF1SF1CU1SC1SC6 CU TR SC TR VIS LWR NE PCPN VRY LGT FG BANK DIST N-SE SLP073
  • 072000Z 02003KT 010V080 12SM -RA FEW002 FEW008 SCT020 OVC032 08/07 A2974 RMK SF1SF2SC1SC6 SF TR SC TR VIS LWR NE QUAD PCPN VRY LGT FG BANK DIST NW-E SLP074
  • 071900Z 07002KT 12SM -RA FEW002 FEW008 SCT020 OVC033 07/07 A2975 RMK SF1SF1SC1SC6 SC TR VIS LWR NE FG BANK DIST E QUAD SLP076

TAF TAF CYXX
Valido dal 07 a 18 ore il 08 a 18 ore UTC


071738Z 0718/0818 04005KT P6SM -RA FEW006 OVC040
TEMPO 0718/0801 3SM -RA BR FEW003 BKN006 OVC020
PROB30 0718/0720 1SM -RA BR BKN003
FM080100 VRB03KT P6SM SCT015 BKN030
TEMPO 0801/0818 3SM -DZ BR FEW002 BKN015
PROB30 0808/0818 1SM -RA BR BKN003 RMK NXT FCST BY 080000Z



MetMap, La meteo Aeronautica in un colpo d'occhio ! - Copyright ORBIFLY Dicembre 2007 - Disclaimer

ORBIFLY MET'MAP TEAM :

Programmazione e sviluppo : Alexandra Zaïnal
Concezione : Baudouin d'Aumeries
Aiuto per la programmazione : Marc-Olivier Méhu
Supporto tecnico e logistico : Manuel Goepfert
Aiuto per la traduzione : Arnaldo La Scala

Contatto : metmap@orbifly.com




FONTI E CREDITI :

   NOAA       Earth
Advisory